createdAt,value
2022-12-09T00:03:45.708Z,42.08
2022-12-09T00:08:48.461Z,38.03
2022-12-09T00:13:55.660Z,32.97
2022-12-09T00:18:57.657Z,31.48
2022-12-09T00:24:01.676Z,39.10
2022-12-09T00:29:03.678Z,37.53
2022-12-09T00:34:07.989Z,36.22
2022-12-09T00:39:12.243Z,38.35
2022-12-09T00:44:14.324Z,37.63
2022-12-09T00:49:16.244Z,32.40
2022-12-09T00:54:18.155Z,32.40
2022-12-09T00:59:20.118Z,35.38
2022-12-09T01:04:22.062Z,32.53
2022-12-09T01:09:24.230Z,40.67
2022-12-09T01:14:26.271Z,41.65
2022-12-09T01:19:28.003Z,39.03
2022-12-09T01:24:30.078Z,35.80
2022-12-09T01:29:31.893Z,28.90
2022-12-09T01:34:33.969Z,34.13
2022-12-09T01:39:35.704Z,29.25
2022-12-09T01:44:37.589Z,32.67
2022-12-09T01:49:47.790Z,37.03
2022-12-09T01:54:52.263Z,26.98
2022-12-09T01:59:54.423Z,37.10
2022-12-09T02:04:57.239Z,40.47
2022-12-09T02:09:59.474Z,33.75
2022-12-09T02:15:27.913Z,37.72
2022-12-09T02:20:44.923Z,35.60
2022-12-09T02:26:05.622Z,31.58
2022-12-09T02:31:58.883Z,38.85
2022-12-09T02:37:10.983Z,40.47
2022-12-09T02:42:17.589Z,37.10
2022-12-09T02:47:23.815Z,41.35
2022-12-09T02:52:27.050Z,36.65
2022-12-09T02:57:30.799Z,39.55
2022-12-09T03:02:39.648Z,44.70
2022-12-09T03:08:03.313Z,40.15
2022-12-09T03:13:14.037Z,44.10
2022-12-09T03:18:19.249Z,42.33
2022-12-09T03:23:25.138Z,36.65
2022-12-09T03:28:33.545Z,48.45
2022-12-09T03:33:35.520Z,46.28
2022-12-09T03:38:40.145Z,43.53
2022-12-09T03:43:48.150Z,37.10
2022-12-09T03:48:50.058Z,39.22
2022-12-09T03:54:15.175Z,40.38
2022-12-09T03:59:18.033Z,40.22
2022-12-09T04:04:20.425Z,36.70
2022-12-09T04:09:22.550Z,39.53
2022-12-09T04:14:24.874Z,42.97
2022-12-09T04:19:27.021Z,52.75
2022-12-09T04:24:29.075Z,44.33
2022-12-09T04:29:30.834Z,46.47
2022-12-09T04:34:33.991Z,40.58
2022-12-09T04:39:36.110Z,43.70
2022-12-09T04:44:37.939Z,41.35
2022-12-09T04:49:39.742Z,50.10
2022-12-09T04:54:41.737Z,45.38
2022-12-09T04:59:43.583Z,43.63
2022-12-09T05:04:47.000Z,45.25
2022-12-09T05:09:49.526Z,53.63
2022-12-09T05:14:51.773Z,48.30
2022-12-09T05:19:53.697Z,51.03
2022-12-09T05:24:56.012Z,48.90
2022-12-09T05:29:57.830Z,48.03
2022-12-09T05:35:00.268Z,55.47
2022-12-09T05:40:02.090Z,52.88
2022-12-09T05:45:04.361Z,55.28
2022-12-09T05:50:08.660Z,52.13
2022-12-09T05:55:11.179Z,63.28
2022-12-09T06:00:14.570Z,64.82
2022-12-09T06:05:17.310Z,49.80
2022-12-09T06:10:19.794Z,47.15
2022-12-09T06:15:25.719Z,58.17
2022-12-09T06:20:30.542Z,52.97
2022-12-09T06:25:32.671Z,55.58
2022-12-09T06:30:34.821Z,63.50
2022-12-09T06:35:37.096Z,54.47
2022-12-09T06:40:43.774Z,53.67
2022-12-09T06:45:45.707Z,58.35
2022-12-09T06:50:47.883Z,69.50
2022-12-09T06:55:50.111Z,64.07
2022-12-09T07:00:51.979Z,69.30
2022-12-09T07:05:54.562Z,65.75
2022-12-09T07:10:57.260Z,64.63
2022-12-09T07:15:59.770Z,71.32
2022-12-09T07:21:13.305Z,62.03
2022-12-09T07:26:16.958Z,63.53
2022-12-09T07:31:25.326Z,61.78
2022-12-09T07:36:28.905Z,65.30
2022-12-09T07:41:31.072Z,71.47
2022-12-09T07:46:33.341Z,81.85
2022-12-09T07:51:35.535Z,79.47
2022-12-09T07:56:38.010Z,59.10
2022-12-09T08:01:40.124Z,67.22
2022-12-09T08:06:42.639Z,61.03
2022-12-09T08:11:44.742Z,63.95
2022-12-09T08:16:47.116Z,73.43
2022-12-09T08:21:54.351Z,51.58
2022-12-09T08:26:57.152Z,69.55
2022-12-09T08:31:59.252Z,55.90
2022-12-09T08:37:02.479Z,62.78
2022-12-09T08:42:05.073Z,60.47
2022-12-09T08:47:07.445Z,54.88
2022-12-09T08:52:09.543Z,53.88
2022-12-09T08:57:11.815Z,58.97
2022-12-09T09:02:14.376Z,55.85
2022-12-09T09:07:16.816Z,68.65
2022-12-09T09:12:20.332Z,56.92
2022-12-09T09:17:23.160Z,49.63
2022-12-09T09:22:27.242Z,51.00
2022-12-09T09:27:29.261Z,47.95
2022-12-09T09:32:32.981Z,48.50
2022-12-09T09:37:34.992Z,49.65
2022-12-09T09:42:44.044Z,53.72
2022-12-09T09:47:58.292Z,36.83
2022-12-09T09:53:12.169Z,44.63
2022-12-09T09:58:37.480Z,40.95
2022-12-09T10:03:54.959Z,40.83
2022-12-09T10:09:32.492Z,35.85
2022-12-09T10:14:48.564Z,35.13
2022-12-09T10:19:56.151Z,36.90
2022-12-09T10:25:00.895Z,33.83
2022-12-09T10:30:09.024Z,31.80
2022-12-09T10:35:16.626Z,27.40
2022-12-09T10:40:34.260Z,26.70
2022-12-09T10:46:16.802Z,27.20
2022-12-09T10:51:20.574Z,29.45
2022-12-09T10:56:31.551Z,33.85
2022-12-09T11:01:47.499Z,50.22
2022-12-09T11:06:57.304Z,56.38
2022-12-09T11:12:03.229Z,50.47
2022-12-09T11:17:15.817Z,51.33
2022-12-09T11:22:21.355Z,57.08
2022-12-09T11:27:30.296Z,39.88
2022-12-09T11:32:32.399Z,50.22
2022-12-09T11:37:38.523Z,42.42
2022-12-09T11:42:40.464Z,40.83
2022-12-09T11:53:20.424Z,44.30
2022-12-09T11:58:43.737Z,41.72
2022-12-09T12:03:53.850Z,44.25
2022-12-09T12:09:05.956Z,28.70
2022-12-09T12:14:22.601Z,36.25
2022-12-09T12:19:35.373Z,38.83
2022-12-09T12:25:10.994Z,33.15
2022-12-09T12:30:26.033Z,37.28
2022-12-09T12:35:42.921Z,39.38
2022-12-09T12:41:01.213Z,37.03
2022-12-09T12:46:19.192Z,45.83
2022-12-09T12:51:47.376Z,42.85
2022-12-09T12:57:10.840Z,32.83
2022-12-09T13:02:27.939Z,35.33
2022-12-09T13:07:41.801Z,38.80
2022-12-09T13:12:54.939Z,31.70
2022-12-09T13:17:56.866Z,34.72
2022-12-09T13:23:28.007Z,32.08
2022-12-09T13:29:00.037Z,32.60
2022-12-09T13:34:21.167Z,40.08
2022-12-09T13:39:41.652Z,28.65
2022-12-09T13:44:46.394Z,22.58
2022-12-09T13:49:58.394Z,29.92
2022-12-09T13:55:00.172Z,29.20
2022-12-09T14:00:17.016Z,32.90
2022-12-09T14:05:22.150Z,33.80
2022-12-09T14:10:45.506Z,30.48
2022-12-09T14:16:08.260Z,37.67
2022-12-09T14:21:19.330Z,28.55
2022-12-09T14:26:38.373Z,32.20
2022-12-09T14:31:49.869Z,35.10
2022-12-09T14:37:06.837Z,38.75
2022-12-09T14:42:22.089Z,36.75
2022-12-09T14:47:30.225Z,30.10
2022-12-09T14:52:34.154Z,33.63
2022-12-09T14:57:43.969Z,37.78
2022-12-09T15:03:22.962Z,27.27
2022-12-09T15:08:31.743Z,40.85
2022-12-09T15:13:34.825Z,22.70
2022-12-09T15:18:39.108Z,34.83
2022-12-09T15:23:44.763Z,31.13
2022-12-09T15:28:52.317Z,31.50
2022-12-09T15:33:56.466Z,32.25
2022-12-09T15:39:01.209Z,29.38
2022-12-09T15:44:07.791Z,35.95
2022-12-09T15:49:13.335Z,32.78
2022-12-09T15:54:20.942Z,30.27
2022-12-09T15:59:30.111Z,31.52
2022-12-09T16:04:41.326Z,29.92
2022-12-09T16:10:22.838Z,30.65
2022-12-09T16:15:42.139Z,33.85
2022-12-09T16:20:45.815Z,48.15
2022-12-09T16:25:49.662Z,45.35
2022-12-09T16:30:55.918Z,50.45
2022-12-09T16:36:06.390Z,45.03
2022-12-09T16:41:11.138Z,37.33
2022-12-09T16:46:12.870Z,59.22
2022-12-09T16:51:17.720Z,54.40
2022-12-09T16:56:25.937Z,58.17
2022-12-09T17:01:33.835Z,59.47
2022-12-09T17:06:35.855Z,69.82
2022-12-09T17:11:37.952Z,73.47
2022-12-09T17:16:39.847Z,67.82
2022-12-09T17:21:41.648Z,63.65
2022-12-09T17:26:43.527Z,61.50
2022-12-09T17:31:46.345Z,60.50
2022-12-09T17:36:48.348Z,71.78
2022-12-09T17:41:50.610Z,79.03
2022-12-09T17:46:52.561Z,62.95
2022-12-09T17:51:54.299Z,47.33
2022-12-09T17:56:56.075Z,60.55
2022-12-09T18:01:57.948Z,53.42
2022-12-09T18:06:59.795Z,52.30
2022-12-09T18:12:01.589Z,58.13
2022-12-09T18:17:03.537Z,55.67
2022-12-09T18:22:05.468Z,47.45
2022-12-09T18:27:07.230Z,58.55
2022-12-09T18:32:09.174Z,49.65
2022-12-09T18:37:12.186Z,41.95
2022-12-09T18:42:14.762Z,43.80
2022-12-09T18:47:16.761Z,54.85
2022-12-09T18:52:18.754Z,68.82
2022-12-09T18:57:20.613Z,48.38
2022-12-09T19:02:22.487Z,60.47
2022-12-09T19:07:27.742Z,57.15
2022-12-09T19:12:55.126Z,52.03
2022-12-09T19:17:55.702Z,70.28
2022-12-09T19:22:57.774Z,53.28
2022-12-09T19:27:59.551Z,54.20
2022-12-09T19:33:01.494Z,52.63
2022-12-09T19:38:03.407Z,60.47
2022-12-09T19:43:05.875Z,62.63
2022-12-09T19:48:07.683Z,67.45
2022-12-09T19:53:09.618Z,55.25
2022-12-09T19:58:11.558Z,70.10
2022-12-09T20:03:13.362Z,62.03
2022-12-09T20:08:15.430Z,74.57
2022-12-09T20:13:17.623Z,78.63
2022-12-09T20:18:19.755Z,69.47
2022-12-09T20:23:21.493Z,66.10
2022-12-09T20:28:23.314Z,77.03
2022-12-09T20:33:25.131Z,74.50
2022-12-09T20:38:26.904Z,75.80
2022-12-09T20:43:30.535Z,69.65
2022-12-09T20:48:32.484Z,75.43
2022-12-09T20:53:35.691Z,68.90
2022-12-09T20:58:38.609Z,75.95
2022-12-09T21:03:40.592Z,73.20
2022-12-09T21:08:43.740Z,57.60
2022-12-09T21:13:52.037Z,66.28
2022-12-09T21:18:56.830Z,56.13
2022-12-09T21:24:01.866Z,49.28
2022-12-09T21:29:04.113Z,47.20
2022-12-09T21:34:07.678Z,46.53
2022-12-09T21:39:13.033Z,48.30
2022-12-09T21:44:18.378Z,57.38
2022-12-09T21:49:20.199Z,42.47
2022-12-09T21:54:22.036Z,52.03
2022-12-09T21:59:23.769Z,45.00
2022-12-09T22:04:25.594Z,54.45
2022-12-09T22:09:27.344Z,58.17
2022-12-09T22:14:29.101Z,53.60
2022-12-09T22:19:30.892Z,55.25
2022-12-09T22:24:32.627Z,54.17
2022-12-09T22:29:34.363Z,46.70
2022-12-09T22:34:36.132Z,56.70
2022-12-09T22:39:37.888Z,56.00
2022-12-09T22:44:40.543Z,46.45
2022-12-09T22:49:42.341Z,57.83
2022-12-09T22:54:44.176Z,49.75
2022-12-09T22:59:45.972Z,52.17
2022-12-09T23:04:47.749Z,45.83
2022-12-09T23:09:50.303Z,55.90
2022-12-09T23:14:52.054Z,51.88
2022-12-09T23:19:53.832Z,55.67
2022-12-09T23:24:55.544Z,56.75
2022-12-09T23:29:57.297Z,57.90
2022-12-09T23:35:03.060Z,57.88
2022-12-09T23:40:08.451Z,53.95
2022-12-09T23:45:10.834Z,46.97
2022-12-09T23:50:12.599Z,53.22
2022-12-09T23:55:14.399Z,57.58
